createdAt,value
2022-12-25T00:00:28.466Z,4.94
2022-12-25T00:01:28.381Z,4.94
2022-12-25T00:02:28.438Z,4.93
2022-12-25T00:03:28.494Z,4.82
2022-12-25T00:04:28.366Z,4.80
2022-12-25T00:05:28.381Z,4.96
2022-12-25T00:06:28.395Z,4.89
2022-12-25T00:07:28.399Z,4.90
2022-12-25T00:08:28.328Z,4.92
2022-12-25T00:09:28.349Z,4.84
2022-12-25T00:10:28.309Z,4.87
2022-12-25T00:11:28.296Z,4.82
2022-12-25T00:12:28.294Z,4.84
2022-12-25T00:13:28.376Z,4.87
2022-12-25T00:14:30.824Z,4.82
2022-12-25T00:15:30.396Z,4.93
2022-12-25T00:16:30.348Z,4.92
2022-12-25T00:17:28.962Z,4.86
2022-12-25T00:18:28.311Z,4.92
2022-12-25T00:19:29.891Z,4.92
2022-12-25T00:20:29.316Z,4.84
2022-12-25T00:21:29.904Z,4.84
2022-12-25T00:22:30.475Z,4.82
2022-12-25T00:23:28.821Z,4.82
2022-12-25T00:24:29.838Z,4.86
2022-12-25T00:25:29.832Z,4.68
2022-12-25T00:26:30.325Z,4.74
2022-12-25T00:27:28.260Z,4.66
2022-12-25T00:28:29.045Z,4.84
2022-12-25T00:29:29.930Z,4.80
2022-12-25T00:30:28.890Z,4.68
2022-12-25T00:31:29.001Z,4.70
2022-12-25T00:32:30.910Z,4.74
2022-12-25T00:33:29.892Z,4.68
2022-12-25T00:34:29.820Z,4.75
2022-12-25T00:35:28.221Z,4.75
2022-12-25T00:36:33.622Z,4.74
2022-12-25T00:37:30.897Z,4.77
2022-12-25T00:38:29.828Z,4.80
2022-12-25T00:39:29.012Z,4.77
2022-12-25T00:40:29.581Z,4.86
2022-12-25T00:41:29.893Z,4.86
2022-12-25T00:42:30.834Z,4.87
2022-12-25T00:43:28.837Z,4.86
2022-12-25T00:44:29.869Z,4.82
2022-12-25T00:45:31.914Z,4.86
2022-12-25T00:46:29.376Z,4.84
2022-12-25T00:47:30.343Z,4.82
2022-12-25T00:48:30.896Z,4.71
2022-12-25T00:49:28.833Z,4.67
2022-12-25T00:50:31.835Z,4.68
2022-12-25T00:51:28.998Z,4.63
2022-12-25T00:52:31.407Z,4.56
2022-12-25T00:53:31.829Z,4.66
2022-12-25T00:54:31.385Z,4.62
2022-12-25T00:55:31.382Z,4.58
2022-12-25T00:56:29.542Z,4.59
2022-12-25T00:57:28.837Z,4.75
2022-12-25T00:58:28.831Z,4.71
2022-12-25T00:59:32.831Z,4.68
2022-12-25T01:00:30.834Z,4.63
2022-12-25T01:01:30.949Z,4.59
2022-12-25T01:02:30.493Z,4.62
2022-12-25T01:03:30.042Z,4.59
2022-12-25T01:04:30.331Z,4.62
2022-12-25T01:05:29.916Z,4.58
2022-12-25T01:06:29.409Z,4.55
2022-12-25T01:07:29.835Z,4.60
2022-12-25T01:08:45.346Z,4.53
2022-12-25T01:09:28.953Z,4.55
2022-12-25T01:10:30.831Z,4.58
2022-12-25T01:11:29.833Z,4.59
2022-12-25T01:12:29.340Z,4.49
2022-12-25T01:13:27.926Z,4.53
2022-12-25T01:14:29.338Z,4.55
2022-12-25T01:15:27.880Z,4.68
2022-12-25T01:16:29.915Z,4.63
2022-12-25T01:17:28.973Z,4.63
2022-12-25T01:18:30.348Z,4.58
2022-12-25T01:19:31.328Z,4.55
2022-12-25T01:20:28.390Z,4.67
2022-12-25T01:21:29.407Z,4.70
2022-12-25T01:22:29.926Z,4.62
2022-12-25T01:23:30.835Z,4.67
2022-12-25T01:24:31.349Z,4.66
2022-12-25T01:25:29.614Z,4.63
2022-12-25T01:26:30.376Z,4.62
2022-12-25T01:27:29.555Z,4.60
2022-12-25T01:28:28.844Z,4.62
2022-12-25T01:29:30.898Z,4.70
2022-12-25T01:30:30.540Z,4.66
2022-12-25T01:31:30.867Z,4.62
2022-12-25T01:32:28.358Z,4.67
2022-12-25T01:33:30.338Z,4.59
2022-12-25T01:34:29.832Z,4.66
2022-12-25T01:35:29.398Z,4.67
2022-12-25T01:36:29.838Z,4.62
2022-12-25T01:37:28.546Z,4.59
2022-12-25T01:38:30.333Z,4.66
2022-12-25T01:39:27.771Z,4.62
2022-12-25T01:40:29.336Z,4.63
2022-12-25T01:41:31.388Z,4.62
2022-12-25T01:42:29.901Z,4.59
2022-12-25T01:43:29.366Z,4.62
2022-12-25T01:44:28.560Z,4.50
2022-12-25T01:45:29.360Z,4.53
2022-12-25T01:46:33.425Z,4.53
2022-12-25T01:47:31.384Z,4.53
2022-12-25T01:48:31.394Z,4.42
2022-12-25T01:49:30.837Z,4.53
2022-12-25T01:50:29.333Z,4.53
2022-12-25T01:51:29.408Z,4.56
2022-12-25T01:52:29.406Z,4.55
2022-12-25T01:53:29.888Z,4.49
2022-12-25T01:54:29.838Z,4.58
2022-12-25T01:55:28.618Z,4.62
2022-12-25T01:56:29.840Z,4.49
2022-12-25T01:57:29.413Z,4.52
2022-12-25T01:58:29.399Z,4.60
2022-12-25T01:59:29.362Z,4.53
2022-12-25T02:00:29.409Z,4.45
2022-12-25T02:01:29.536Z,4.55
2022-12-25T02:02:31.444Z,4.52
2022-12-25T02:03:30.958Z,4.53
2022-12-25T02:04:28.835Z,4.53
2022-12-25T02:05:30.355Z,4.50
2022-12-25T02:06:28.841Z,4.52
2022-12-25T02:07:28.503Z,4.49
2022-12-25T02:08:30.355Z,4.53
2022-12-25T02:09:28.046Z,4.55
2022-12-25T02:10:28.345Z,4.45
2022-12-25T02:11:28.527Z,4.55
2022-12-25T02:12:30.348Z,4.52
2022-12-25T02:13:28.898Z,4.55
2022-12-25T02:14:28.849Z,4.62
2022-12-25T02:15:28.927Z,4.60
2022-12-25T02:16:28.896Z,4.55
2022-12-25T02:17:28.957Z,4.62
2022-12-25T02:18:34.408Z,4.53
2022-12-25T02:19:29.401Z,4.63
2022-12-25T02:20:29.842Z,4.49
2022-12-25T02:21:28.390Z,4.56
2022-12-25T02:22:28.843Z,4.58
2022-12-25T02:23:29.378Z,4.67
2022-12-25T02:24:28.362Z,4.67
2022-12-25T02:25:28.072Z,4.70
2022-12-25T02:26:28.371Z,4.71
2022-12-25T02:27:29.843Z,4.68
2022-12-25T02:28:28.897Z,4.71
2022-12-25T02:29:28.844Z,4.75
2022-12-25T02:30:27.895Z,4.73
2022-12-25T02:31:29.490Z,4.87
2022-12-25T02:32:30.344Z,4.82
2022-12-25T02:33:28.888Z,4.82
2022-12-25T02:34:28.378Z,4.73
2022-12-25T02:35:30.903Z,4.70
2022-12-25T02:36:28.561Z,4.63
2022-12-25T02:37:28.849Z,4.68
2022-12-25T02:38:28.899Z,4.89
2022-12-25T02:39:29.903Z,4.86
2022-12-25T02:40:28.909Z,4.78
2022-12-25T02:41:29.410Z,4.82
2022-12-25T02:42:29.851Z,4.84
2022-12-25T02:43:28.907Z,4.84
2022-12-25T02:44:29.032Z,4.90
2022-12-25T02:45:29.037Z,4.89
2022-12-25T02:46:27.860Z,4.82
2022-12-25T02:47:31.905Z,4.94
2022-12-25T02:48:28.853Z,4.87
2022-12-25T02:49:27.257Z,4.92
2022-12-25T02:50:28.561Z,5.05
2022-12-25T02:51:27.850Z,4.97
2022-12-25T02:52:30.849Z,5.07
2022-12-25T02:53:44.347Z,5.04
2022-12-25T02:54:30.892Z,4.99
2022-12-25T02:55:31.374Z,5.02
2022-12-25T02:56:27.848Z,5.07
2022-12-25T02:57:28.080Z,5.02
2022-12-25T02:58:27.863Z,5.05
2022-12-25T02:59:27.192Z,5.10
2022-12-25T03:00:29.076Z,5.04
2022-12-25T03:01:28.110Z,5.08
2022-12-25T03:02:27.490Z,5.07
2022-12-25T03:03:29.166Z,5.14
2022-12-25T03:04:29.179Z,5.07
2022-12-25T03:05:28.908Z,5.12
2022-12-25T03:06:27.934Z,5.05
2022-12-25T03:07:28.852Z,5.04
2022-12-25T03:08:27.568Z,5.04
2022-12-25T03:09:28.420Z,5.05
2022-12-25T03:10:27.993Z,5.10
2022-12-25T03:11:28.918Z,5.02
2022-12-25T03:12:27.850Z,5.12
2022-12-25T03:13:28.856Z,5.07
2022-12-25T03:14:27.914Z,5.02
2022-12-25T03:15:28.536Z,5.11
2022-12-25T03:16:28.967Z,5.12
2022-12-25T03:17:27.855Z,5.15
2022-12-25T03:18:27.866Z,5.10
2022-12-25T03:19:29.370Z,5.11
2022-12-25T03:20:27.930Z,5.12
2022-12-25T03:21:29.932Z,5.12
2022-12-25T03:22:27.973Z,5.12
2022-12-25T03:23:31.382Z,5.15
2022-12-25T03:24:29.394Z,5.12
2022-12-25T03:25:28.356Z,5.11
2022-12-25T03:26:26.928Z,5.07
2022-12-25T03:27:29.358Z,5.14
2022-12-25T03:28:29.375Z,5.07
2022-12-25T03:29:31.791Z,5.10
2022-12-25T03:30:27.957Z,5.11
2022-12-25T03:31:28.895Z,5.02
2022-12-25T03:32:26.886Z,5.05
2022-12-25T03:33:45.688Z,5.23
2022-12-25T03:34:30.863Z,5.15
2022-12-25T03:35:28.365Z,5.17
2022-12-25T03:36:31.362Z,5.17
2022-12-25T03:37:29.587Z,5.20
2022-12-25T03:38:27.367Z,5.15
2022-12-25T03:39:27.586Z,5.18
2022-12-25T03:40:28.375Z,5.20
2022-12-25T03:41:28.588Z,5.25
2022-12-25T03:42:28.370Z,5.28
2022-12-25T03:43:28.359Z,5.20
2022-12-25T03:44:29.417Z,5.23
2022-12-25T03:45:28.864Z,5.26
2022-12-25T03:46:28.933Z,5.26
2022-12-25T03:47:28.932Z,5.33
2022-12-25T03:48:26.715Z,5.21
2022-12-25T03:49:29.418Z,5.30
2022-12-25T03:50:28.359Z,5.33
2022-12-25T03:51:28.877Z,5.33
2022-12-25T03:52:28.422Z,5.39
2022-12-25T03:53:28.901Z,5.35
2022-12-25T03:54:29.369Z,5.43
2022-12-25T03:55:29.404Z,5.30
2022-12-25T03:56:28.363Z,5.44
2022-12-25T03:57:27.576Z,5.28
2022-12-25T03:58:29.864Z,5.39
2022-12-25T04:00:00.990Z,5.35
2022-12-25T04:00:26.592Z,5.32
2022-12-25T04:01:26.756Z,5.36
2022-12-25T04:02:26.735Z,5.30
2022-12-25T04:03:26.609Z,5.35
2022-12-25T04:04:26.549Z,5.28
2022-12-25T04:05:27.565Z,5.33
2022-12-25T04:06:26.565Z,5.29
2022-12-25T04:07:26.550Z,5.38
2022-12-25T04:08:26.570Z,5.41
2022-12-25T04:09:26.520Z,5.47
2022-12-25T04:10:26.569Z,5.43
2022-12-25T04:11:26.550Z,5.50
2022-12-25T04:12:26.511Z,5.46
2022-12-25T04:13:26.509Z,5.35
2022-12-25T04:14:26.489Z,5.30
2022-12-25T04:15:26.562Z,5.41
2022-12-25T04:16:26.553Z,5.41
2022-12-25T04:17:26.450Z,5.30
2022-12-25T04:18:26.471Z,5.32
2022-12-25T04:19:26.487Z,5.46
2022-12-25T04:20:26.439Z,5.33
2022-12-25T04:21:26.438Z,5.44
2022-12-25T04:22:26.452Z,5.30
2022-12-25T04:23:26.419Z,5.36
2022-12-25T04:24:26.413Z,5.35
2022-12-25T04:25:26.415Z,5.41
2022-12-25T04:26:26.389Z,5.44
2022-12-25T04:27:26.433Z,5.43
2022-12-25T04:28:26.381Z,5.41
2022-12-25T04:29:26.394Z,5.35
2022-12-25T04:30:26.380Z,5.35
2022-12-25T04:31:26.491Z,5.46
2022-12-25T04:32:26.380Z,5.53
2022-12-25T04:33:26.361Z,5.36
2022-12-25T04:34:26.354Z,5.36
2022-12-25T04:35:26.341Z,5.41
2022-12-25T04:36:26.317Z,5.33
2022-12-25T04:37:26.351Z,5.44
2022-12-25T04:38:26.310Z,5.43
2022-12-25T04:39:26.317Z,5.41
2022-12-25T04:40:26.320Z,5.51
2022-12-25T04:41:26.283Z,5.53
2022-12-25T04:42:26.308Z,5.57
2022-12-25T04:43:26.263Z,5.53
2022-12-25T04:44:26.271Z,5.57
2022-12-25T04:45:26.262Z,5.56
2022-12-25T04:46:26.305Z,5.57
2022-12-25T04:47:26.256Z,5.54
2022-12-25T04:48:26.251Z,5.57
2022-12-25T04:49:26.230Z,5.48
2022-12-25T04:50:26.218Z,5.47
2022-12-25T04:51:26.207Z,5.43
2022-12-25T04:52:26.249Z,5.41
2022-12-25T04:53:26.195Z,5.33
2022-12-25T04:54:26.205Z,5.32
2022-12-25T04:55:26.176Z,5.35
2022-12-25T04:56:26.192Z,5.33
2022-12-25T04:57:26.199Z,5.41
2022-12-25T04:58:26.158Z,5.36
2022-12-25T04:59:26.157Z,5.39
2022-12-25T05:00:26.144Z,5.51
2022-12-25T05:01:26.263Z,5.54
2022-12-25T05:02:26.400Z,5.50
2022-12-25T05:03:26.197Z,5.61
2022-12-25T05:04:26.105Z,5.57
2022-12-25T05:05:26.095Z,5.62
2022-12-25T05:06:26.102Z,5.54
2022-12-25T05:07:26.121Z,5.62
2022-12-25T05:08:26.084Z,5.69
2022-12-25T05:09:26.092Z,5.71
2022-12-25T05:10:26.067Z,5.64
2022-12-25T05:11:26.051Z,5.64
2022-12-25T05:12:26.073Z,5.59
2022-12-25T05:13:26.042Z,5.59
2022-12-25T05:14:26.050Z,5.61
2022-12-25T05:15:26.052Z,5.57
2022-12-25T05:16:26.072Z,5.43
2022-12-25T05:17:26.023Z,5.54
2022-12-25T05:18:25.996Z,5.50
2022-12-25T05:19:26.004Z,5.62
2022-12-25T05:20:25.978Z,5.64
2022-12-25T05:21:26.015Z,5.64
2022-12-25T05:22:25.992Z,5.65
2022-12-25T05:23:25.993Z,5.62
2022-12-25T05:24:25.962Z,5.53
2022-12-25T05:25:25.948Z,5.51
2022-12-25T05:26:25.926Z,5.53
2022-12-25T05:27:25.973Z,5.57
2022-12-25T05:28:25.917Z,5.65
2022-12-25T05:29:25.939Z,5.64
2022-12-25T05:30:25.899Z,5.66
2022-12-25T05:31:25.924Z,5.59
2022-12-25T05:32:26.912Z,5.57
2022-12-25T05:33:25.891Z,5.57
2022-12-25T05:34:25.898Z,5.59
2022-12-25T05:35:25.871Z,5.65
2022-12-25T05:36:25.851Z,5.71
2022-12-25T05:37:25.869Z,5.72
2022-12-25T05:38:25.832Z,5.65
2022-12-25T05:39:25.831Z,5.71
2022-12-25T05:40:25.836Z,5.61
2022-12-25T05:41:30.630Z,5.68
2022-12-25T05:42:27.835Z,5.64
2022-12-25T05:43:25.801Z,5.65
2022-12-25T05:44:25.813Z,5.71
2022-12-25T05:45:25.797Z,5.68
2022-12-25T05:46:25.859Z,5.69
2022-12-25T05:47:25.763Z,5.71
2022-12-25T05:48:25.760Z,5.68
2022-12-25T05:49:25.739Z,5.62
2022-12-25T05:50:25.733Z,5.65
2022-12-25T05:51:25.711Z,5.61
2022-12-25T05:52:25.716Z,5.68
2022-12-25T05:53:25.753Z,5.66
2022-12-25T05:54:25.695Z,5.71
2022-12-25T05:55:25.694Z,5.69
2022-12-25T05:56:25.694Z,5.69
2022-12-25T05:57:25.710Z,5.79
2022-12-25T05:58:25.687Z,5.76
2022-12-25T05:59:25.662Z,5.73
2022-12-25T06:00:25.657Z,5.75
2022-12-25T06:01:25.686Z,5.72
2022-12-25T06:02:25.884Z,5.79
2022-12-25T06:03:25.707Z,5.71
2022-12-25T06:04:25.624Z,5.86
2022-12-25T06:05:25.632Z,5.71
2022-12-25T06:06:25.619Z,5.68
2022-12-25T06:07:25.593Z,5.84
2022-12-25T06:08:25.616Z,5.86
2022-12-25T06:09:26.582Z,5.83
2022-12-25T06:10:25.588Z,5.76
2022-12-25T06:11:25.591Z,5.87
2022-12-25T06:12:25.560Z,5.79
2022-12-25T06:13:25.574Z,5.89
2022-12-25T06:14:25.549Z,5.94
2022-12-25T06:15:25.568Z,6.01
2022-12-25T06:16:25.555Z,6.02
2022-12-25T06:17:25.518Z,5.98
2022-12-25T06:18:25.542Z,5.94
2022-12-25T06:19:25.510Z,5.94
2022-12-25T06:20:25.524Z,5.94
2022-12-25T06:21:25.503Z,5.97
2022-12-25T06:22:25.499Z,5.99
2022-12-25T06:23:25.553Z,5.94
2022-12-25T06:24:25.485Z,6.05
2022-12-25T06:25:25.457Z,6.05
2022-12-25T06:26:25.459Z,6.11
2022-12-25T06:27:25.445Z,6.04
2022-12-25T06:28:25.466Z,5.97
2022-12-25T06:29:25.434Z,5.98
2022-12-25T06:30:25.426Z,6.01
2022-12-25T06:31:25.467Z,6.02
2022-12-25T06:32:25.420Z,6.08
2022-12-25T06:33:25.432Z,5.97
2022-12-25T06:34:25.396Z,6.01
2022-12-25T06:35:25.395Z,5.97
2022-12-25T06:36:25.409Z,5.94
2022-12-25T06:37:25.367Z,5.94
2022-12-25T06:38:25.382Z,5.98
2022-12-25T06:39:25.356Z,5.90
2022-12-25T06:40:25.353Z,5.94
2022-12-25T06:41:25.364Z,6.02
2022-12-25T06:42:25.328Z,5.99
2022-12-25T06:43:26.355Z,5.94
2022-12-25T06:44:25.324Z,6.02
2022-12-25T06:45:25.348Z,5.94
2022-12-25T06:46:25.389Z,5.87
2022-12-25T06:47:25.301Z,5.90
2022-12-25T06:48:25.323Z,5.75
2022-12-25T06:49:25.275Z,5.84
2022-12-25T06:50:25.271Z,5.71
2022-12-25T06:51:25.287Z,5.83
2022-12-25T06:52:25.250Z,5.68
2022-12-25T06:53:25.292Z,5.65
2022-12-25T06:54:25.258Z,5.66
2022-12-25T06:55:25.240Z,5.73
2022-12-25T06:56:25.233Z,5.72
2022-12-25T06:57:25.214Z,5.80
2022-12-25T06:58:25.264Z,5.75
2022-12-25T06:59:25.203Z,5.73
2022-12-25T07:00:25.235Z,5.72
2022-12-25T07:01:25.312Z,5.75
2022-12-25T07:02:25.361Z,5.73
2022-12-25T07:03:25.234Z,5.66
2022-12-25T07:04:25.170Z,5.75
2022-12-25T07:05:25.164Z,5.75
2022-12-25T07:06:25.172Z,5.80
2022-12-25T07:07:25.145Z,5.86
2022-12-25T07:08:25.174Z,5.90
2022-12-25T07:09:25.137Z,5.89
2022-12-25T07:10:25.122Z,5.87
2022-12-25T07:11:25.106Z,5.83
2022-12-25T07:12:25.104Z,5.86
2022-12-25T07:13:26.252Z,5.86
2022-12-25T07:14:26.089Z,5.75
2022-12-25T07:15:25.074Z,5.80
2022-12-25T07:16:25.122Z,5.79
2022-12-25T07:17:25.066Z,5.73
2022-12-25T07:18:25.094Z,5.83
2022-12-25T07:19:25.044Z,5.87
2022-12-25T07:20:25.040Z,5.94
2022-12-25T07:21:25.044Z,5.98
2022-12-25T07:22:25.034Z,5.87
2022-12-25T07:23:25.045Z,5.99
2022-12-25T07:24:25.019Z,6.01
2022-12-25T07:25:25.003Z,6.08
2022-12-25T07:26:24.994Z,6.07
2022-12-25T07:27:25.004Z,6.05
2022-12-25T07:28:25.019Z,6.08
2022-12-25T07:29:24.986Z,6.17
2022-12-25T07:30:24.990Z,6.09
2022-12-25T07:31:25.018Z,6.12
2022-12-25T07:32:24.948Z,6.08
2022-12-25T07:33:24.980Z,6.07
2022-12-25T07:34:24.950Z,6.11
2022-12-25T07:35:24.935Z,6.02
2022-12-25T07:36:24.926Z,6.12
2022-12-25T07:37:24.919Z,6.08
2022-12-25T07:38:24.947Z,6.09
2022-12-25T07:39:24.922Z,6.26
2022-12-25T07:40:24.900Z,6.17
2022-12-25T07:41:24.896Z,6.20
2022-12-25T07:42:25.431Z,6.24
2022-12-25T07:43:25.912Z,6.24
2022-12-25T07:44:24.853Z,6.28
2022-12-25T07:45:24.856Z,6.20
2022-12-25T07:46:25.002Z,6.26
2022-12-25T07:47:24.833Z,6.24
2022-12-25T07:48:24.860Z,6.30
2022-12-25T07:49:24.822Z,6.20
2022-12-25T07:50:24.806Z,6.24
2022-12-25T07:51:24.801Z,6.19
2022-12-25T07:52:24.819Z,6.22
2022-12-25T07:53:24.821Z,6.22
2022-12-25T07:54:24.788Z,6.20
2022-12-25T07:55:24.789Z,6.20
2022-12-25T07:56:24.782Z,6.14
2022-12-25T07:57:24.766Z,6.16
2022-12-25T07:58:24.796Z,6.19
2022-12-25T07:59:24.748Z,6.19
2022-12-25T08:00:24.737Z,6.16
2022-12-25T08:01:24.989Z,6.11
2022-12-25T08:02:25.043Z,6.22
2022-12-25T08:03:24.969Z,6.22
2022-12-25T08:04:24.710Z,6.27
2022-12-25T08:05:24.699Z,6.28
2022-12-25T08:06:24.708Z,6.31
2022-12-25T08:07:24.678Z,6.41
2022-12-25T08:08:24.708Z,6.41
2022-12-25T08:09:24.696Z,6.41
2022-12-25T08:10:24.708Z,6.38
2022-12-25T08:11:24.663Z,6.38
2022-12-25T08:12:24.642Z,6.49
2022-12-25T08:13:24.644Z,6.49
2022-12-25T08:14:24.653Z,6.49
2022-12-25T08:15:24.643Z,6.46
2022-12-25T08:16:24.659Z,6.44
2022-12-25T08:17:24.619Z,6.48
2022-12-25T08:18:29.506Z,6.60
2022-12-25T08:19:26.614Z,6.59
2022-12-25T08:20:24.599Z,6.56
2022-12-25T08:21:24.589Z,6.63
2022-12-25T08:22:24.573Z,6.59
2022-12-25T08:23:24.572Z,6.54
2022-12-25T08:24:24.581Z,6.63
2022-12-25T08:25:24.547Z,6.66
2022-12-25T08:26:24.566Z,6.66
2022-12-25T08:27:24.540Z,6.75
2022-12-25T08:28:24.529Z,6.74
2022-12-25T08:29:24.561Z,6.78
2022-12-25T08:30:24.515Z,6.78
2022-12-25T08:31:24.537Z,6.85
2022-12-25T08:32:24.501Z,6.84
2022-12-25T08:33:24.500Z,6.87
2022-12-25T08:34:24.505Z,6.85
2022-12-25T08:35:24.479Z,6.97
2022-12-25T08:36:24.481Z,6.87
2022-12-25T08:37:24.463Z,6.89
2022-12-25T08:38:24.471Z,6.81
2022-12-25T08:39:24.523Z,6.81
2022-12-25T08:40:24.445Z,6.93
2022-12-25T08:41:24.434Z,6.87
2022-12-25T08:42:24.422Z,6.97
2022-12-25T08:43:24.423Z,6.89
2022-12-25T08:44:24.439Z,6.97
2022-12-25T08:45:27.345Z,7.00
2022-12-25T08:46:25.482Z,6.79
2022-12-25T08:47:24.392Z,7.00
2022-12-25T08:48:24.386Z,6.85
2022-12-25T08:49:24.405Z,6.84
2022-12-25T08:50:24.398Z,6.97
2022-12-25T08:51:24.371Z,6.92
2022-12-25T08:52:24.358Z,6.79
2022-12-25T08:53:24.367Z,6.92
2022-12-25T08:54:24.775Z,6.81
2022-12-25T08:55:24.384Z,6.84
2022-12-25T08:56:24.320Z,6.84
2022-12-25T08:57:25.265Z,6.81
2022-12-25T08:58:24.315Z,6.82
2022-12-25T08:59:24.330Z,6.88
2022-12-25T09:00:24.302Z,6.89
2022-12-25T09:01:24.379Z,6.95
2022-12-25T09:02:25.580Z,6.81
2022-12-25T09:03:24.425Z,6.84
2022-12-25T09:04:24.277Z,6.89
2022-12-25T09:05:24.240Z,6.77
2022-12-25T09:06:24.243Z,6.89
2022-12-25T09:07:24.218Z,6.89
2022-12-25T09:08:24.248Z,6.87
2022-12-25T09:09:24.250Z,6.88
2022-12-25T09:10:24.236Z,6.82
2022-12-25T09:11:24.202Z,6.96
2022-12-25T09:12:24.180Z,6.81
2022-12-25T09:13:24.187Z,6.88
2022-12-25T09:14:24.314Z,6.88
2022-12-25T09:15:24.172Z,6.89
2022-12-25T09:16:24.239Z,6.92
2022-12-25T09:17:24.159Z,7.00
2022-12-25T09:18:24.148Z,6.92
2022-12-25T09:19:24.166Z,7.02
2022-12-25T09:20:24.131Z,7.10
2022-12-25T09:21:24.118Z,7.03
2022-12-25T09:22:24.125Z,7.07
2022-12-25T09:23:24.099Z,7.10
2022-12-25T09:24:24.135Z,7.14
2022-12-25T09:25:24.117Z,7.07
2022-12-25T09:26:24.105Z,7.13
2022-12-25T09:27:24.086Z,7.10
2022-12-25T09:28:24.063Z,7.17
2022-12-25T09:29:25.096Z,7.15
2022-12-25T09:30:24.055Z,7.11
2022-12-25T09:31:24.120Z,7.02
2022-12-25T09:32:24.066Z,7.07
2022-12-25T09:33:24.070Z,7.14
2022-12-25T09:34:25.134Z,7.10
2022-12-25T09:35:24.080Z,7.03
2022-12-25T09:36:24.078Z,7.13
2022-12-25T09:37:24.037Z,7.20
2022-12-25T09:38:24.001Z,7.18
2022-12-25T09:39:24.030Z,7.15
2022-12-25T09:40:23.986Z,7.31
2022-12-25T09:41:24.007Z,7.24
2022-12-25T09:42:23.974Z,7.31
2022-12-25T09:43:23.965Z,7.32
2022-12-25T09:44:24.013Z,7.38
2022-12-25T09:45:23.945Z,7.35
2022-12-25T09:46:24.027Z,7.35
2022-12-25T09:47:23.970Z,7.48
2022-12-25T09:48:24.070Z,7.42
2022-12-25T09:49:23.971Z,7.53
2022-12-25T09:50:23.925Z,7.53
2022-12-25T09:51:23.902Z,7.58
2022-12-25T09:52:24.035Z,7.53
2022-12-25T09:53:23.981Z,7.63
2022-12-25T09:54:23.899Z,7.61
2022-12-25T09:55:23.909Z,7.63
2022-12-25T09:56:23.874Z,7.58
2022-12-25T09:57:23.873Z,7.60
2022-12-25T09:58:24.101Z,7.67
2022-12-25T09:59:23.870Z,7.63
2022-12-25T10:00:57.571Z,7.72
2022-12-25T10:01:23.855Z,7.58
2022-12-25T10:02:23.991Z,7.48
2022-12-25T10:03:23.859Z,7.58
2022-12-25T10:04:23.811Z,7.53
2022-12-25T10:05:23.840Z,7.66
2022-12-25T10:06:23.820Z,7.58
2022-12-25T10:07:23.777Z,7.63
2022-12-25T10:08:23.765Z,7.61
2022-12-25T10:09:23.752Z,7.63
2022-12-25T10:10:23.787Z,7.69
2022-12-25T10:11:23.780Z,7.76
2022-12-25T10:12:23.737Z,7.69
2022-12-25T10:13:23.737Z,7.72
2022-12-25T10:14:23.793Z,7.79
2022-12-25T10:15:23.788Z,7.79
2022-12-25T10:16:23.759Z,7.82
2022-12-25T10:17:23.696Z,7.88
2022-12-25T10:18:23.685Z,7.95
2022-12-25T10:19:23.708Z,7.77
2022-12-25T10:20:23.686Z,7.75
2022-12-25T10:21:23.690Z,7.88
2022-12-25T10:22:23.734Z,7.90
2022-12-25T10:23:23.661Z,8.03
2022-12-25T10:24:23.672Z,7.87
2022-12-25T10:25:23.674Z,7.75
2022-12-25T10:26:23.781Z,7.79
2022-12-25T10:27:23.618Z,7.77
2022-12-25T10:28:23.703Z,7.87
2022-12-25T10:29:23.621Z,7.83
2022-12-25T10:30:23.625Z,7.94
2022-12-25T10:31:23.640Z,8.00
2022-12-25T10:32:23.593Z,8.03
2022-12-25T10:33:23.600Z,8.06
2022-12-25T10:34:23.568Z,8.10
2022-12-25T10:35:23.585Z,8.08
2022-12-25T10:36:23.557Z,8.13
2022-12-25T10:37:24.212Z,8.16
2022-12-25T10:38:23.537Z,8.18
2022-12-25T10:39:23.574Z,8.12
2022-12-25T10:40:23.589Z,8.23
2022-12-25T10:41:23.535Z,8.23
2022-12-25T10:42:23.509Z,8.26
2022-12-25T10:43:23.498Z,8.30
2022-12-25T10:44:23.499Z,8.27
2022-12-25T10:45:23.512Z,8.15
2022-12-25T10:46:23.596Z,8.23
2022-12-25T10:47:23.473Z,8.08
2022-12-25T10:48:23.473Z,8.13
2022-12-25T10:49:23.517Z,8.10
2022-12-25T10:50:23.495Z,8.15
2022-12-25T10:51:23.438Z,8.23
2022-12-25T10:52:23.447Z,8.26
2022-12-25T10:53:23.421Z,8.30
2022-12-25T10:54:23.433Z,8.41
2022-12-25T10:55:28.461Z,8.26
2022-12-25T10:56:25.434Z,8.36
2022-12-25T10:57:23.387Z,8.42
2022-12-25T10:58:23.380Z,8.49
2022-12-25T10:59:23.382Z,8.58
2022-12-25T11:00:23.405Z,8.61
2022-12-25T11:01:23.501Z,8.55
2022-12-25T11:02:23.666Z,8.63
2022-12-25T11:03:23.519Z,8.71
2022-12-25T11:04:23.343Z,8.81
2022-12-25T11:05:23.357Z,8.67
2022-12-25T11:06:23.323Z,8.64
2022-12-25T11:07:23.312Z,8.56
2022-12-25T11:08:23.300Z,8.61
2022-12-25T11:09:23.294Z,8.53
2022-12-25T11:10:23.303Z,8.67
2022-12-25T11:11:23.306Z,8.52
2022-12-25T11:12:23.276Z,8.63
2022-12-25T11:13:23.267Z,8.66
2022-12-25T11:14:23.254Z,8.67
2022-12-25T11:15:23.241Z,8.61
2022-12-25T11:16:23.334Z,8.67
2022-12-25T11:17:23.239Z,8.67
2022-12-25T11:18:23.277Z,8.66
2022-12-25T11:19:23.279Z,8.82
2022-12-25T11:20:23.204Z,8.85
2022-12-25T11:21:23.240Z,8.87
2022-12-25T11:22:23.192Z,8.92
2022-12-25T11:23:23.179Z,8.82
2022-12-25T11:24:23.423Z,8.92
2022-12-25T11:25:23.171Z,8.85
2022-12-25T11:26:23.195Z,8.89
2022-12-25T11:27:23.157Z,9.06
2022-12-25T11:28:23.153Z,9.00
2022-12-25T11:29:23.141Z,9.03
2022-12-25T11:30:23.152Z,9.06
2022-12-25T11:31:23.180Z,8.99
2022-12-25T11:32:23.122Z,9.14
2022-12-25T11:33:23.115Z,8.92
2022-12-25T11:34:23.133Z,8.85
2022-12-25T11:35:23.153Z,8.67
2022-12-25T11:36:23.114Z,8.74
2022-12-25T11:37:23.087Z,8.73
2022-12-25T11:38:23.069Z,8.76
2022-12-25T11:39:23.075Z,8.67
2022-12-25T11:40:23.066Z,8.70
2022-12-25T11:41:23.096Z,8.71
2022-12-25T11:42:23.043Z,8.71
2022-12-25T11:43:23.025Z,8.78
2022-12-25T11:44:23.020Z,8.56
2022-12-25T11:45:23.015Z,8.67
2022-12-25T11:46:23.089Z,8.69
2022-12-25T11:47:23.032Z,8.58
2022-12-25T11:48:22.999Z,8.60
2022-12-25T11:49:22.990Z,8.66
2022-12-25T11:50:22.978Z,8.58
2022-12-25T11:51:22.990Z,8.69
2022-12-25T11:52:22.964Z,8.61
2022-12-25T11:53:23.021Z,8.64
2022-12-25T11:54:22.969Z,8.53
2022-12-25T11:55:22.945Z,8.70
2022-12-25T11:56:22.967Z,8.64
2022-12-25T11:57:22.944Z,8.79
2022-12-25T11:58:22.923Z,8.81
2022-12-25T11:59:22.912Z,8.74
2022-12-25T12:00:22.907Z,8.73
2022-12-25T12:01:22.941Z,8.73
2022-12-25T12:02:23.043Z,8.76
2022-12-25T12:03:22.978Z,8.84
2022-12-25T12:04:27.622Z,8.91
2022-12-25T12:05:24.853Z,8.87
2022-12-25T12:06:22.847Z,8.91
2022-12-25T12:07:23.176Z,8.97
2022-12-25T12:08:22.847Z,9.04
2022-12-25T12:09:22.880Z,9.08
2022-12-25T12:10:22.818Z,9.03
2022-12-25T12:11:22.836Z,9.11
2022-12-25T12:12:22.841Z,9.10
2022-12-25T12:13:22.804Z,9.14
2022-12-25T12:14:22.795Z,9.25
2022-12-25T12:15:22.799Z,9.14
2022-12-25T12:16:22.860Z,9.19
2022-12-25T12:17:22.798Z,9.18
2022-12-25T12:18:22.766Z,9.22
2022-12-25T12:19:22.749Z,9.28
2022-12-25T12:20:22.750Z,9.28
2022-12-25T12:21:22.748Z,9.19
2022-12-25T12:22:22.891Z,9.21
2022-12-25T12:23:22.722Z,9.25
2022-12-25T12:24:22.721Z,9.22
2022-12-25T12:25:22.728Z,9.25
2022-12-25T12:26:22.758Z,9.23
2022-12-25T12:27:22.743Z,9.32
2022-12-25T12:28:22.739Z,9.28
2022-12-25T12:29:22.700Z,9.26
2022-12-25T12:30:22.671Z,9.31
2022-12-25T12:31:22.698Z,9.28
2022-12-25T12:32:22.692Z,9.28
2022-12-25T12:33:22.645Z,9.25
2022-12-25T12:34:22.643Z,9.31
2022-12-25T12:35:22.643Z,9.21
2022-12-25T12:36:34.497Z,9.28
2022-12-25T12:37:25.178Z,9.14
2022-12-25T12:38:23.604Z,9.21
2022-12-25T12:39:22.612Z,9.40
2022-12-25T12:40:22.590Z,9.25
2022-12-25T12:41:22.582Z,9.46
2022-12-25T12:42:22.602Z,9.40
2022-12-25T12:43:22.564Z,9.37
2022-12-25T12:44:22.578Z,9.47
2022-12-25T12:45:22.545Z,9.22
2022-12-25T12:46:27.985Z,9.32
2022-12-25T12:47:24.570Z,9.26
2022-12-25T12:48:22.529Z,9.32
2022-12-25T12:49:22.523Z,9.34
2022-12-25T12:50:22.554Z,9.37
2022-12-25T12:51:22.531Z,9.41
2022-12-25T12:52:22.542Z,9.51
2022-12-25T12:53:22.495Z,9.43
2022-12-25T12:54:22.493Z,9.50
2022-12-25T12:55:22.481Z,9.51
2022-12-25T12:56:22.470Z,9.68
2022-12-25T12:57:22.482Z,9.61
2022-12-25T12:58:22.454Z,9.59
2022-12-25T12:59:22.442Z,9.65
2022-12-25T13:00:22.443Z,9.61
2022-12-25T13:01:22.481Z,9.48
2022-12-25T13:02:22.571Z,9.56
2022-12-25T13:03:22.434Z,9.44
2022-12-25T13:04:22.405Z,9.37
2022-12-25T13:05:22.395Z,9.34
2022-12-25T13:06:22.390Z,9.39
2022-12-25T13:07:22.416Z,9.36
2022-12-25T13:08:22.375Z,9.28
2022-12-25T13:09:22.374Z,9.28
2022-12-25T13:10:22.360Z,9.23
2022-12-25T13:11:22.337Z,9.25
2022-12-25T13:12:22.362Z,9.25
2022-12-25T13:13:22.327Z,9.19
2022-12-25T13:14:23.325Z,9.31
2022-12-25T13:15:22.365Z,9.22
2022-12-25T13:16:22.388Z,9.23
2022-12-25T13:17:22.345Z,9.25
2022-12-25T13:18:22.291Z,9.22